Time;durP1;ratioP1;P1;durP2;ratioP2;P2;SDS_P1;SDS_P2;PMS_P1;PMS_P2;Temp;Humidity;BMP_temperature;BMP_pressure;BME280_temperature;BME280_humidity;BME280_pressure;Samples;Min_cycle;Max_cycle;Signal;HPM_P1;HPM_P2
2024/01/23 00:00:25;;;;;;;15.80;14.77;;;;;;;-8.31;100.00;102161.25;5059703;28;20481;-82
2024/01/23 00:02:51;;;;;;;2.97;2.78;;;;;;;-7.93;100.00;102178.66;5051778;28;20037;-82
2024/01/23 00:05:16;;;;;;;0.50;0.50;;;;;;;-8.01;100.00;102151.50;5054831;28;20094;-82
2024/01/23 00:07:42;;;;;;;0.60;0.60;;;;;;;-7.77;100.00;102178.56;5055165;28;20045;-79
2024/01/23 00:10:08;;;;;;;29.35;15.52;;;;;;;-7.66;100.00;102178.91;5056534;28;20056;-81
2024/01/23 00:12:33;;;;;;;9.50;8.68;;;;;;;-7.81;100.00;102173.91;5069608;28;20574;-81
2024/01/23 00:14:59;;;;;;;7.95;7.38;;;;;;;-7.67;100.00;102178.75;5064695;28;20028;-78
2024/01/23 00:17:25;;;;;;;3.90;3.70;;;;;;;-8.41;100.00;102061.78;5063154;28;20103;-82
2024/01/23 00:19:50;;;;;;;4.63;2.53;;;;;;;-7.65;100.00;102173.06;5058170;28;20674;-83
2024/01/23 00:22:16;;;;;;;3.45;3.33;;;;;;;-8.28;100.00;102041.00;5059604;28;20125;-82
2024/01/23 00:24:41;;;;;;;0.50;0.50;;;;;;;-8.00;100.00;102144.03;5064433;28;20047;-78
2024/01/23 00:27:08;;;;;;;2.42;2.33;;;;;;;-8.42;100.00;102062.56;5074091;28;20048;-81
2024/01/23 00:29:34;;;;;;;2.15;2.05;;;;;;;-8.53;100.00;102060.53;5064056;28;20137;-82
2024/01/23 00:32:01;;;;;;;0.47;0.47;;;;;;;-8.79;100.00;102066.38;5053118;28;20102;-80
2024/01/23 00:34:26;;;;;;;1.27;1.27;;;;;;;-7.79;100.00;102165.69;5060272;28;20079;-80
2024/01/23 00:36:52;;;;;;;1.05;0.60;;;;;;;-7.95;100.00;102130.09;5055094;28;20393;-78
2024/01/23 00:39:18;;;;;;;0.88;0.82;;;;;;;-9.67;100.00;102038.53;5057597;28;20064;-80
2024/01/23 00:41:44;;;;;;;0.50;0.50;;;;;;;-10.05;100.00;102011.56;5062160;28;20076;-81
2024/01/23 00:44:10;;;;;;;3.13;3.03;;;;;;;-9.36;100.00;102143.44;5054970;28;20048;-81
2024/01/23 00:46:36;;;;;;;3.70;3.55;;;;;;;-9.85;100.00;102012.06;5059429;28;20033;-80
2024/01/23 00:49:01;;;;;;;0.70;0.70;;;;;;;-10.01;100.00;102028.94;5059894;28;20068;-83
2024/01/23 00:51:28;;;;;;;1.27;1.20;;;;;;;-9.40;100.00;102019.31;5058061;28;20045;-81
2024/01/23 00:53:54;;;;;;;1.45;1.35;;;;;;;-9.63;100.00;102015.25;5058301;28;20101;-80
2024/01/23 00:56:19;;;;;;;1.58;1.48;;;;;;;-9.36;100.00;102124.00;5055961;28;20324;-80
2024/01/23 00:58:45;;;;;;;1.05;1.05;;;;;;;-9.30;100.00;102127.91;5061622;28;20032;-82
2024/01/23 01:01:11;;;;;;;0.63;0.63;;;;;;;-9.78;100.00;102026.31;5059754;28;20052;-83
2024/01/23 01:03:37;;;;;;;1.02;0.98;;;;;;;-9.82;100.00;102032.69;5056285;28;20485;-80
2024/01/23 01:06:03;;;;;;;5.10;4.90;;;;;;;-8.96;100.00;102117.16;5049509;28;20087;-81
2024/01/23 01:08:29;;;;;;;1.02;1.00;;;;;;;-9.70;100.00;102116.03;5054722;28;20087;-80
2024/01/23 01:10:54;;;;;;;5.63;5.35;;;;;;;-9.47;100.00;102126.13;5052398;28;20151;-79
2024/01/23 01:13:20;;;;;;;6.95;6.63;;;;;;;-9.29;100.00;102112.84;5058921;28;20076;-80
2024/01/23 01:15:45;;;;;;;1.60;1.50;;;;;;;-10.33;100.00;101979.81;5067498;28;20480;-80
2024/01/23 01:18:11;;;;;;;1.08;1.08;;;;;;;-9.19;100.00;102112.19;5067884;28;20556;-81
2024/01/23 01:20:36;;;;;;;1.35;1.30;;;;;;;-9.02;100.00;102085.97;5065089;28;20036;-81
2024/01/23 01:23:02;;;;;;;3.63;3.42;;;;;;;-9.54;100.00;102085.56;5062761;28;20045;-80
2024/01/23 01:25:27;;;;;;;44.78;30.05;;;;;;;-9.33;100.00;102094.56;5060891;28;20089;-81
2024/01/23 01:27:54;;;;;;;1.13;1.05;;;;;;;-10.29;100.00;102010.75;5059859;28;20579;-81
2024/01/23 01:30:21;;;;;;;7.80;7.35;;;;;;;-10.13;100.00;102030.16;5059570;28;20068;-81
2024/01/23 01:32:46;;;;;;;0.50;0.50;;;;;;;-10.41;100.00;101979.00;5056132;28;20024;-80
2024/01/23 01:35:12;;;;;;;1.48;1.38;;;;;;;-9.52;100.00;102087.53;5057844;28;20403;-81
2024/01/23 01:37:38;;;;;;;0.93;0.93;;;;;;;-9.19;100.00;102122.34;5054409;28;20040;-83
2024/01/23 01:40:05;;;;;;;1.58;1.48;;;;;;;-9.66;100.00;102113.97;5055170;28;20053;-80
2024/01/23 01:42:30;;;;;;;3.45;3.35;;;;;;;-9.89;100.00;102019.19;5059897;28;20139;-77
2024/01/23 01:44:56;;;;;;;0.90;0.90;;;;;;;-9.60;100.00;101977.50;5054075;28;20111;-80
2024/01/23 01:47:22;;;;;;;1.17;1.10;;;;;;;-9.11;100.00;102035.06;5056798;28;20132;-80
2024/01/23 01:49:48;;;;;;;6.53;6.22;;;;;;;-8.89;100.00;102090.72;5059608;28;20128;-81
2024/01/23 01:52:14;;;;;;;0.57;0.57;;;;;;;-9.61;100.00;102087.44;5049763;28;20047;-80
2024/01/23 01:54:42;;;;;;;7.70;7.38;;;;;;;-9.78;100.00;102072.94;5052920;28;20087;-82
2024/01/23 01:57:07;;;;;;;1.58;1.48;;;;;;;-8.94;100.00;102087.72;5059977;28;20039;-80
2024/01/23 01:59:33;;;;;;;0.50;0.50;;;;;;;-9.45;100.00;101962.03;5055601;28;20036;-81
2024/01/23 02:02:00;;;;;;;15.07;14.35;;;;;;;-9.11;100.00;102007.09;5047273;28;20048;-81
2024/01/23 02:04:25;;;;;;;1.45;1.38;;;;;;;-8.65;100.00;102084.75;5048081;28;20064;-81
2024/01/23 02:06:51;;;;;;;1.23;1.20;;;;;;;-8.78;100.00;102058.03;5051019;28;20036;-78
2024/01/23 02:09:17;;;;;;;3.20;3.08;;;;;;;-8.82;100.00;102075.38;5057862;28;20104;-78
2024/01/23 02:12:00;;;;;;;13.85;12.98;;;;;;;-9.37;100.00;101967.16;5044029;28;20028;-78
2024/01/23 02:14:28;;;;;;;0.88;0.80;;;;;;;-9.15;100.00;101959.25;5053676;28;20734;-80
2024/01/23 02:16:54;;;;;;;0.60;0.60;;;;;;;-9.03;100.00;101974.88;5066138;28;20068;-78
2024/01/23 02:19:19;;;;;;;1.45;1.35;;;;;;;-9.01;100.00;102054.75;5056651;28;20405;-80
2024/01/23 02:21:45;;;;;;;0.50;0.50;;;;;;;-9.66;100.00;101948.00;5063426;28;20488;-80
2024/01/23 02:24:10;;;;;;;3.75;3.60;;;;;;;-9.13;100.00;102042.56;5061665;28;20024;-80
2024/01/23 02:26:36;;;;;;;19.42;17.67;;;;;;;-10.62;100.00;101861.78;5053218;28;20033;-79
2024/01/23 02:29:01;;;;;;;0.98;0.98;;;;;;;-10.27;100.00;101938.22;5060164;28;20417;-80
2024/01/23 02:31:27;;;;;;;0.50;0.50;;;;;;;-9.37;100.00;101995.13;5055108;28;20511;-79
2024/01/23 02:33:52;;;;;;;2.40;2.30;;;;;;;-10.16;100.00;101908.91;5055808;28;20120;-79
2024/01/23 02:36:18;;;;;;;0.75;0.75;;;;;;;-9.07;100.00;102031.22;5046563;28;20062;-79
2024/01/23 02:38:43;;;;;;;1.50;1.40;;;;;;;-9.47;100.00;102009.25;5054414;28;20032;-79
2024/01/23 02:41:09;;;;;;;29.85;27.42;;;;;;;-9.70;100.00;102011.91;5050836;28;20064;-80
2024/01/23 02:43:36;;;;;;;2.45;2.35;;;;;;;-10.19;100.00;101886.63;5057827;28;20034;-78
2024/01/23 02:46:03;;;;;;;0.60;0.60;;;;;;;-9.29;100.00;102001.03;5048201;28;20057;-77
2024/01/23 02:48:29;;;;;;;3.55;3.40;;;;;;;-9.64;100.00;101964.31;5049118;28;20049;-79
2024/01/23 02:50:54;;;;;;;0.50;0.43;;;;;;;-9.76;100.00;101877.56;5045612;28;20131;-79
2024/01/23 02:53:20;;;;;;;0.50;0.50;;;;;;;-9.94;100.00;101868.91;5046608;28;20053;-77
2024/01/23 02:55:45;;;;;;;0.60;0.60;;;;;;;-9.90;100.00;101882.81;5051221;28;20171;-79
2024/01/23 02:58:11;;;;;;;7.22;6.88;;;;;;;-9.63;100.00;101842.53;5053024;28;20037;-79
2024/01/23 03:00:39;;;;;;;1.98;1.88;;;;;;;-9.52;100.00;101871.59;5054735;28;20044;-79
2024/01/23 03:03:06;;;;;;;0.60;0.55;;;;;;;-9.37;100.00;101963.72;5050963;28;20029;-81
2024/01/23 03:05:32;;;;;;;1.17;1.08;;;;;;;-10.15;100.00;101791.44;5052256;28;20029;-82
2024/01/23 03:07:58;;;;;;;1.98;1.88;;;;;;;-8.85;100.00;101960.56;5053496;28;20060;-83
2024/01/23 03:10:23;;;;;;;6.93;6.63;;;;;;;-8.93;100.00;101959.81;5049733;28;20752;-87
2024/01/23 03:12:49;;;;;;;1.88;1.77;;;;;;;-9.04;100.00;101940.00;5057749;28;20059;-82
2024/01/23 03:15:14;;;;;;;6.10;5.78;;;;;;;-9.40;100.00;101855.06;5047559;28;20033;-82
2024/01/23 03:17:40;;;;;;;4.78;4.57;;;;;;;-8.89;100.00;101916.16;5058570;28;20443;-85
2024/01/23 03:20:06;;;;;;;2.92;2.80;;;;;;;-9.31;100.00;101856.75;5053853;28;20064;-83
2024/01/23 03:22:32;;;;;;;0.50;0.50;;;;;;;-8.97;100.00;101867.03;5050662;28;20053;-84
2024/01/23 03:24:58;;;;;;;3.60;3.42;;;;;;;-9.05;100.00;101833.97;5051523;28;20189;-81
2024/01/23 03:27:24;;;;;;;0.88;0.88;;;;;;;-8.33;100.00;101963.28;5057780;28;20044;-81
2024/01/23 03:29:51;;;;;;;0.68;0.68;;;;;;;-9.29;100.00;101939.09;5050984;28;20480;-84
2024/01/23 03:32:17;;;;;;;3.00;2.05;;;;;;;-10.12;100.00;101844.13;5050590;28;20052;-76
2024/01/23 03:34:43;;;;;;;0.70;0.70;;;;;;;-10.11;100.00;101834.16;5077697;28;20064;-81
2024/01/23 03:37:08;;;;;;;3.10;2.85;;;;;;;-9.94;100.00;101858.75;5067968;28;20040;-78
2024/01/23 03:39:34;;;;;;;0.40;0.40;;;;;;;-9.41;100.00;101949.81;5074756;28;20056;-81
2024/01/23 03:42:02;;;;;;;0.50;0.50;;;;;;;-9.26;100.00;101955.59;5075602;28;20111;-79
2024/01/23 03:44:28;;;;;;;0.50;0.50;;;;;;;-9.50;100.00;101914.94;5075805;28;20045;-81
2024/01/23 03:46:55;;;;;;;5.22;5.03;;;;;;;-10.15;100.00;101821.88;5080240;28;20043;-78
2024/01/23 03:49:22;;;;;;;0.40;0.40;;;;;;;-9.48;100.00;101954.09;5061232;28;20512;-78
2024/01/23 03:51:48;;;;;;;22.90;21.10;;;;;;;-9.30;100.00;101937.31;5054272;28;20044;-79
2024/01/23 03:54:14;;;;;;;1.17;1.17;;;;;;;-9.40;100.00;101823.69;5061806;28;20044;-78
2024/01/23 03:56:40;;;;;;;1.60;1.50;;;;;;;-8.64;100.00;101944.06;5059466;28;20021;-78
2024/01/23 03:59:06;;;;;;;0.50;0.50;;;;;;;-9.33;100.00;101793.06;5054159;28;20048;-77
2024/01/23 04:01:32;;;;;;;0.70;0.70;;;;;;;-8.47;100.00;101911.03;5052092;28;20045;-79
2024/01/23 04:03:57;;;;;;;0.50;0.50;;;;;;;-8.45;100.00;101929.91;5056619;28;20041;-81
2024/01/23 04:06:23;;;;;;;1.85;1.75;;;;;;;-9.36;100.00;101763.16;5053723;28;20041;-80
2024/01/23 04:08:49;;;;;;;1.67;1.58;;;;;;;-9.13;100.00;101792.50;5056559;28;20448;-79
2024/01/23 04:11:14;;;;;;;3.50;3.33;;;;;;;-9.06;100.00;101791.47;5060108;28;20129;-80
2024/01/23 04:13:40;;;;;;;22.83;21.08;;;;;;;-9.04;100.00;101785.81;5053770;28;20075;-79
2024/01/23 04:16:06;;;;;;;0.50;0.50;;;;;;;-8.30;100.00;101907.59;5057031;28;20036;-81
2024/01/23 04:18:32;;;;;;;0.50;0.40;;;;;;;-8.98;100.00;101794.06;5056777;28;20534;-82
2024/01/23 04:20:58;;;;;;;2.80;1.25;;;;;;;-8.99;100.00;101788.81;5060273;28;20081;-82
2024/01/23 04:23:23;;;;;;;0.60;0.60;;;;;;;-8.20;100.00;101902.66;5051984;28;20111;-81
2024/01/23 04:25:49;;;;;;;3.92;3.72;;;;;;;-8.91;100.00;101775.22;5065245;28;20067;-77
2024/01/23 04:28:15;;;;;;;0.88;0.88;;;;;;;-8.96;100.00;101881.56;5056690;28;20859;-78
2024/01/23 04:30:40;;;;;;;0.80;0.80;;;;;;;-8.61;100.00;101889.31;5053528;28;20150;-80
2024/01/23 04:33:06;;;;;;;23.83;21.42;;;;;;;-9.54;100.00;101775.66;5053511;28;20047;-78
2024/01/23 04:35:33;;;;;;;0.40;0.40;;;;;;;-9.23;100.00;101845.72;5060503;28;20028;-80
2024/01/23 04:37:58;;;;;;;3.17;2.95;;;;;;;-9.07;100.00;101887.19;5059277;28;20041;-81
2024/01/23 04:40:24;;;;;;;0.40;0.40;;;;;;;-8.77;100.00;101863.97;5058735;28;20056;-80
2024/01/23 04:42:49;;;;;;;0.68;0.68;;;;;;;-8.77;100.00;101883.44;5063587;28;20467;-79
2024/01/23 04:45:15;;;;;;;2.80;2.70;;;;;;;-9.61;100.00;101791.91;5056358;28;20042;-79
2024/01/23 04:47:41;;;;;;;1.00;0.63;;;;;;;-9.87;100.00;101767.25;5061528;28;20520;-78
2024/01/23 04:50:08;;;;;;;10.60;10.02;;;;;;;-8.81;100.00;101882.19;5062548;28;20044;-78
2024/01/23 04:52:34;;;;;;;1.30;1.20;;;;;;;-9.28;100.00;101855.41;5058277;28;20041;-79
2024/01/23 04:55:00;;;;;;;4.85;4.55;;;;;;;-9.29;100.00;101870.50;5060314;28;20093;-81
2024/01/23 04:57:31;;;;;;;1.50;1.27;;;;;;;-9.39;100.00;101840.69;5056466;28;20056;-79
2024/01/23 05:00:00;;;;;;;0.65;0.65;;;;;;;-9.43;100.00;101783.59;5058025;28;20084;-82
2024/01/23 05:02:27;;;;;;;1.17;1.08;;;;;;;-9.40;100.00;101818.59;5047945;28;21281;-78
2024/01/23 05:04:53;;;;;;;1.52;1.48;;;;;;;-8.94;100.00;101886.81;5059604;28;20466;-82
2024/01/23 05:07:19;;;;;;;26.83;24.83;;;;;;;-8.87;100.00;101868.91;5049887;28;20045;-81
2024/01/23 05:09:44;;;;;;;0.90;0.90;;;;;;;-9.30;100.00;101793.34;5057009;28;20122;-80
2024/01/23 05:12:10;;;;;;;0.65;0.65;;;;;;;-9.35;100.00;101802.16;5055674;28;20037;-80
2024/01/23 05:14:36;;;;;;;0.50;0.43;;;;;;;-9.02;100.00;101891.09;5054002;28;20127;-81
2024/01/23 05:17:02;;;;;;;0.77;0.77;;;;;;;-8.84;100.00;101865.75;5057597;28;20072;-80
2024/01/23 05:19:29;;;;;;;0.60;0.60;;;;;;;-9.31;100.00;101783.94;5058283;28;20051;-80
2024/01/23 05:21:55;;;;;;;0.45;0.45;;;;;;;-8.96;100.00;101756.09;5053798;28;20139;-81
2024/01/23 05:24:20;;;;;;;0.85;0.85;;;;;;;-8.22;100.00;101873.59;5055782;28;20047;-79
2024/01/23 05:26:46;;;;;;;0.50;0.50;;;;;;;-9.05;100.00;101757.72;5054965;28;20044;-80
2024/01/23 05:29:12;;;;;;;14.57;13.75;;;;;;;-8.96;100.00;101751.88;5059440;28;20040;-79
2024/01/23 05:31:37;;;;;;;2.40;2.28;;;;;;;-7.97;100.00;101869.25;5047697;28;20047;-79
2024/01/23 05:34:03;;;;;;;0.57;0.57;;;;;;;-7.93;100.00;101870.47;5063281;28;20045;-81
2024/01/23 05:36:28;;;;;;;0.73;0.73;;;;;;;-8.38;100.00;101754.13;5057148;28;20067;-81
2024/01/23 05:38:55;;;;;;;13.13;10.80;;;;;;;-7.84;100.00;101840.78;5061224;28;20041;-81
2024/01/23 05:41:21;;;;;;;1.42;1.35;;;;;;;-8.49;100.00;101683.50;5078677;28;20054;-79
2024/01/23 05:43:46;;;;;;;0.40;0.40;;;;;;;-8.23;100.00;101731.78;5056269;28;20045;-79
2024/01/23 05:46:12;;;;;;;0.60;0.60;;;;;;;-7.36;100.00;101858.94;5058910;28;20048;-81
2024/01/23 05:48:37;;;;;;;17.27;16.20;;;;;;;-7.83;100.00;101743.22;5058753;28;20045;-80
2024/01/23 05:51:03;;;;;;;0.50;0.50;;;;;;;-7.82;100.00;101742.47;5058011;28;20052;-80
2024/01/23 05:53:29;;;;;;;10.98;10.43;;;;;;;-7.04;100.00;101851.78;5054590;28;20096;-84
2024/01/23 05:55:55;;;;;;;1.35;1.30;;;;;;;-7.62;100.00;101740.91;5061000;28;20044;-84
2024/01/23 05:58:23;;;;;;;1.20;1.17;;;;;;;-7.78;100.00;101739.47;5051735;28;20072;-82
2024/01/23 06:00:49;;;;;;;1.20;1.20;;;;;;;-7.14;100.00;101828.75;5053261;28;20041;-81
2024/01/23 06:03:14;;;;;;;1.15;1.05;;;;;;;-6.95;100.00;101856.84;5054403;28;20534;-81
2024/01/23 06:05:40;;;;;;;27.15;24.50;;;;;;;-7.14;100.00;101828.75;5063882;28;20048;-83
2024/01/23 06:08:06;;;;;;;1.55;1.45;;;;;;;-7.18;100.00;101828.31;5054470;28;20055;-82
2024/01/23 06:10:32;;;;;;;0.65;0.65;;;;;;;-7.67;100.00;101730.28;5052567;28;20041;-80
2024/01/23 06:12:58;;;;;;;1.00;0.98;;;;;;;-7.02;100.00;101859.59;5057820;28;20037;-81
2024/01/23 06:15:23;;;;;;;2.70;2.60;;;;;;;-8.29;100.00;101764.28;5049568;28;20059;-85
2024/01/23 06:17:50;;;;;;;8.63;8.07;;;;;;;-7.83;100.00;101783.09;5058263;28;20027;-85
2024/01/23 06:20:16;;;;;;;5.75;5.47;;;;;;;-7.25;100.00;101849.78;5055153;28;20056;-81
2024/01/23 06:22:42;;;;;;;19.42;17.67;;;;;;;-7.86;100.00;101728.56;5045752;28;20036;-83
2024/01/23 06:25:14;;;;;;;0.40;0.40;;;;;;;-7.48;100.00;101753.28;5052385;28;20041;-83
2024/01/23 06:27:40;;;;;;;9.23;8.52;;;;;;;-6.99;100.00;101829.25;5044031;28;20075;-82
2024/01/23 06:30:07;;;;;;;0.47;0.43;;;;;;;-7.44;100.00;101738.44;5052696;28;20087;-79
2024/01/23 06:32:36;;;;;;;3.95;3.63;;;;;;;-7.64;100.00;101779.88;5051460;28;20067;-80
2024/01/23 06:35:02;;;;;;;1.85;1.75;;;;;;;-8.14;100.00;101737.78;5060844;28;20053;-79
2024/01/23 06:37:27;;;;;;;0.90;0.90;;;;;;;-7.37;100.00;101801.09;5054330;28;20048;-78
2024/01/23 06:39:53;;;;;;;2.08;1.98;;;;;;;-7.68;100.00;101725.94;5046551;28;20059;-80
2024/01/23 06:42:18;;;;;;;8.82;8.38;;;;;;;-6.83;100.00;101855.44;5057650;28;20079;-81
2024/01/23 06:44:44;;;;;;;2.45;2.35;;;;;;;-6.85;100.00;101854.38;5058422;28;20028;-83
2024/01/23 06:47:10;;;;;;;0.73;0.73;;;;;;;-7.19;100.00;101755.97;5057192;28;20069;-82
2024/01/23 06:49:35;;;;;;;5.20;4.97;;;;;;;-7.28;100.00;101725.47;5055463;28;20080;-82
2024/01/23 06:52:02;;;;;;;1.83;1.73;;;;;;;-7.15;100.00;101780.13;5055792;28;20080;-83
2024/01/23 06:54:28;;;;;;;0.45;0.40;;;;;;;-7.18;100.00;101750.16;5068076;28;20044;-80
2024/01/23 06:56:53;;;;;;;1.70;1.60;;;;;;;-6.42;100.00;101849.78;5054939;28;20029;-79
2024/01/23 06:59:19;;;;;;;2.88;2.78;;;;;;;-6.42;100.00;101848.09;5046650;28;20060;-82
2024/01/23 07:01:46;;;;;;;4.50;4.20;;;;;;;-6.50;100.00;101831.22;5043816;28;20489;-83
2024/01/23 07:04:12;;;;;;;0.50;0.50;;;;;;;-6.32;100.00;101831.06;5044419;28;20060;-82
2024/01/23 07:06:38;;;;;;;0.88;0.88;;;;;;;-6.97;100.00;101720.59;5046029;28;21187;-79
2024/01/23 07:09:04;;;;;;;0.40;0.40;;;;;;;-6.85;100.00;101739.56;5044099;28;20043;-79
2024/01/23 07:11:30;;;;;;;0.50;0.50;;;;;;;-6.47;100.00;101831.47;5040489;28;20494;-77
2024/01/23 07:13:56;;;;;;;0.50;0.50;;;;;;;-6.38;100.00;101813.56;5037242;28;20106;-80
2024/01/23 07:16:22;;;;;;;0.40;0.40;;;;;;;-6.46;100.00;101763.44;5038663;28;20045;-76
2024/01/23 07:18:48;;;;;;;14.10;12.90;;;;;;;-6.86;100.00;101698.59;5043602;28;20072;-75
2024/01/23 07:21:13;;;;;;;29.15;24.33;;;;;;;-6.56;100.00;101738.75;5039622;28;20147;-76
2024/01/23 07:23:39;;;;;;;14.77;13.82;;;;;;;-6.61;100.00;101722.13;5039833;28;20161;-76
2024/01/23 07:26:05;;;;;;;0.90;0.77;;;;;;;-6.68;100.00;101700.25;5040184;28;20183;-77
2024/01/23 07:28:30;;;;;;;0.82;0.80;;;;;;;-6.16;100.00;101812.19;5045632;28;20071;-77
2024/01/23 07:30:56;;;;;;;1.08;1.05;;;;;;;-6.23;100.00;101827.72;5039408;28;20057;-75
2024/01/23 07:33:22;;;;;;;0.50;0.50;;;;;;;-6.74;100.00;101724.31;5044037;28;21231;-77
2024/01/23 07:35:47;;;;;;;8.90;8.50;;;;;;;-6.17;100.00;101833.34;5045547;28;20091;-76
2024/01/23 07:38:13;;;;;;;2.25;2.15;;;;;;;-6.71;100.00;101774.00;5045828;28;20530;-77
2024/01/23 07:40:40;;;;;;;2.55;2.45;;;;;;;-6.58;100.00;101816.84;5044156;28;20057;-75
2024/01/23 07:43:06;;;;;;;1.67;1.58;;;;;;;-6.34;100.00;101779.88;5045142;28;20800;-76
2024/01/23 07:45:31;;;;;;;0.40;0.40;;;;;;;-5.90;100.00;101812.63;5045743;28;20052;-74
2024/01/23 07:47:57;;;;;;;3.30;2.67;;;;;;;-5.82;100.00;101807.44;5044674;28;20033;-77
2024/01/23 07:50:22;;;;;;;0.63;0.63;;;;;;;-6.33;100.00;101710.16;5049214;28;20516;-77
2024/01/23 07:52:48;;;;;;;11.73;11.07;;;;;;;-5.67;100.00;101782.31;5044401;28;20103;-75
2024/01/23 07:55:14;;;;;;;1.02;1.02;;;;;;;-5.98;100.00;101702.13;5044828;28;20055;-77
2024/01/23 07:57:39;;;;;;;2.05;1.95;;;;;;;-5.40;100.00;101804.28;5045921;28;20552;-78
2024/01/23 08:00:07;;;;;;;8.50;7.97;;;;;;;-6.08;100.00;101710.66;5048127;28;20033;-74
2024/01/23 08:02:34;;;;;;;20.05;18.10;;;;;;;-5.82;100.00;101732.44;5040767;28;20035;-75
2024/01/23 08:05:00;;;;;;;3.90;3.70;;;;;;;-5.44;100.00;101798.78;5046034;28;20060;-78
2024/01/23 08:07:26;;;;;;;0.40;0.40;;;;;;;-5.93;100.00;101705.94;5044453;28;20125;-75
2024/01/23 08:09:51;;;;;;;1.17;1.17;;;;;;;-5.36;100.00;101821.69;5050577;28;20801;-76
2024/01/23 08:12:17;;;;;;;0.40;0.40;;;;;;;-5.86;100.00;101722.72;5045421;28;20689;-75
2024/01/23 08:14:43;;;;;;;1.23;1.13;;;;;;;-5.06;100.00;101826.72;5045356;28;20118;-74
2024/01/23 08:17:10;;;;;;;0.40;0.40;;;;;;;-5.19;100.00;101801.78;5042642;28;20504;-76
2024/01/23 08:19:39;;;;;;;3.53;3.33;;;;;;;-5.45;100.00;101728.84;5043102;28;20048;-75
2024/01/23 08:22:05;;;;;;;4.00;3.80;;;;;;;-5.66;100.00;101709.09;5042229;28;20087;-77
2024/01/23 08:24:30;;;;;;;6.00;5.68;;;;;;;-5.33;100.00;101811.72;5047158;28;20666;-74
2024/01/23 08:26:56;;;;;;;0.50;0.50;;;;;;;-5.37;100.00;101799.41;5043879;28;20602;-76
2024/01/23 08:29:21;;;;;;;1.13;1.13;;;;;;;-5.71;100.00;101718.94;5043831;28;20077;-74
2024/01/23 08:31:47;;;;;;;1.10;1.02;;;;;;;-5.24;100.00;101805.63;5025478;28;20048;-75
2024/01/23 08:34:13;;;;;;;3.95;3.60;;;;;;;-4.91;100.00;101800.78;5044914;28;20465;-76
2024/01/23 08:36:38;;;;;;;0.50;0.50;;;;;;;-4.92;100.00;101805.75;5043310;28;20044;-75
2024/01/23 08:39:04;;;;;;;2.28;2.17;;;;;;;-5.36;100.00;101708.22;5044313;28;20058;-74
2024/01/23 08:41:29;;;;;;;0.90;0.90;;;;;;;-5.31;100.00;101769.25;5043662;28;20033;-74
2024/01/23 08:43:55;;;;;;;10.43;9.63;;;;;;;-4.68;100.00;101804.38;5046849;28;20301;-75
2024/01/23 08:46:22;;;;;;;1.73;1.67;;;;;;;-4.40;100.00;101820.38;5043881;28;20712;-75
2024/01/23 08:48:47;;;;;;;2.17;2.08;;;;;;;-4.44;100.00;101805.53;5042052;28;20067;-75
2024/01/23 08:51:13;;;;;;;2.60;2.50;;;;;;;-4.41;100.00;101805.75;5042585;28;20208;-75
2024/01/23 08:53:38;;;;;;;0.60;0.60;;;;;;;-5.07;100.00;101720.94;5042896;28;20895;-76
2024/01/23 08:56:04;;;;;;;0.77;0.77;;;;;;;-4.23;100.00;101796.13;5044497;28;20058;-76
2024/01/23 08:58:30;;;;;;;2.65;2.50;;;;;;;-4.31;100.00;101786.91;5044280;28;20389;-75
2024/01/23 09:00:55;;;;;;;0.50;0.50;;;;;;;-4.12;100.00;101799.56;5056487;28;20128;-74
2024/01/23 09:03:21;;;;;;;0.95;0.95;;;;;;;-4.83;100.00;101728.84;5041396;28;20052;-75
2024/01/23 09:05:48;;;;;;;0.50;0.50;;;;;;;-4.81;100.00;101701.72;5044177;28;20037;-74
2024/01/23 09:08:13;;;;;;;1.10;1.00;;;;;;;-4.01;100.00;101774.81;5046385;28;20500;-76
2024/01/23 09:10:40;;;;;;;6.53;5.88;;;;;;;-4.47;100.00;101664.41;5042733;28;20097;-76
2024/01/23 09:13:05;;;;;;;0.50;0.50;;;;;;;-4.33;100.00;101661.28;5042419;28;20181;-75
2024/01/23 09:15:31;;;;;;;0.73;0.60;;;;;;;-4.48;100.00;101642.09;5042970;28;20053;-74
2024/01/23 09:17:57;;;;;;;8.82;8.32;;;;;;;-4.18;100.00;101676.06;5043689;28;20044;-74
2024/01/23 09:20:23;;;;;;;0.95;0.95;;;;;;;-4.14;100.00;101645.69;5042259;28;20049;-73
2024/01/23 09:22:50;;;;;;;5.80;5.55;;;;;;;-3.65;100.00;101711.06;5045815;28;20055;-74
2024/01/23 09:25:17;;;;;;;2.00;1.90;;;;;;;-3.38;100.00;101729.34;5037304;28;20049;-75
2024/01/23 09:27:43;;;;;;;20.80;19.02;;;;;;;-3.53;100.00;101735.88;5039968;28;20056;-74
2024/01/23 09:30:09;;;;;;;13.98;8.77;;;;;;;-4.00;100.00;101627.91;5044436;28;20357;-72
2024/01/23 09:32:34;;;;;;;8.23;7.63;;;;;;;-3.98;100.00;101628.91;5046180;28;20063;-73
2024/01/23 09:35:02;;;;;;;11.52;10.77;;;;;;;-4.12;100.00;101613.38;5044199;28;20067;-75
2024/01/23 09:37:28;;;;;;;4.68;4.35;;;;;;;-3.21;100.00;101713.59;5047089;28;20045;-81
2024/01/23 09:39:54;;;;;;;2.38;2.15;;;;;;;-3.31;100.00;101630.63;5042022;28;20055;-80
2024/01/23 09:42:23;;;;;;;0.60;0.60;;;;;;;-2.70;100.00;101712.22;5044160;28;20064;-76
2024/01/23 09:44:53;;;;;;;4.97;4.57;;;;;;;-4.21;100.00;101423.06;5044296;28;20036;-77
2024/01/23 09:47:20;;;;;;;8.95;8.43;;;;;;;-2.61;100.00;101683.75;5042024;28;20135;-78
2024/01/23 09:49:46;;;;;;;12.90;11.88;;;;;;;-2.64;100.00;101684.44;5045835;28;20056;-79
2024/01/23 09:52:12;;;;;;;3.83;3.63;;;;;;;-2.28;100.00;101705.00;5042990;28;20090;-78
2024/01/23 09:54:38;;;;;;;22.60;14.55;;;;;;;-2.64;100.00;101629.59;5041289;28;20053;-78
2024/01/23 09:57:04;;;;;;;0.60;0.60;;;;;;;-2.45;100.00;101675.50;5044631;28;20155;-78
2024/01/23 09:59:29;;;;;;;3.00;2.80;;;;;;;-3.09;100.00;101636.59;5044911;28;20129;-77
2024/01/23 10:01:56;;;;;;;1.48;1.40;;;;;;;-2.68;100.00;101717.50;5041940;28;20605;-78
2024/01/23 10:04:22;;;;;;;3.22;3.13;;;;;;;-2.74;100.00;101706.75;5040563;28;20049;-78
2024/01/23 10:06:48;;;;;;;3.08;2.90;;;;;;;-2.51;100.00;101708.47;5044290;28;20049;-76
2024/01/23 10:09:13;;;;;;;7.35;3.92;;;;;;;-2.62;100.00;101682.00;5042981;28;20052;-79
2024/01/23 10:11:39;;;;;;;1.92;1.83;;;;;;;-2.70;100.00;101719.94;5040947;28;20028;-79
2024/01/23 10:14:06;;;;;;;21.17;19.13;;;;;;;-2.57;100.00;101720.06;5043127;28;20127;-78
2024/01/23 10:16:32;;;;;;;4.05;3.80;;;;;;;-2.79;100.00;101696.13;5038486;28;20037;-80
2024/01/23 10:18:59;;;;;;;2.78;2.67;;;;;;;-3.29;100.00;101647.03;5040844;28;20110;-75
2024/01/23 10:21:25;;;;;;;9.93;9.43;;;;;;;-2.83;100.00;101725.84;5042773;28;20075;-78
2024/01/23 10:23:56;;;;;;;6.15;5.75;;;;;;;-3.27;100.00;101630.97;5042334;28;20132;-80
2024/01/23 10:26:22;;;;;;;1.20;1.15;;;;;;;-2.59;100.00;101729.34;5036673;28;20457;-79
2024/01/23 10:28:48;;;;;;;3.72;3.42;;;;;;;-3.02;100.00;101721.00;5040886;28;20044;-78
2024/01/23 10:31:14;;;;;;;11.07;10.52;;;;;;;-2.54;100.00;101724.53;5039930;28;20131;-83
2024/01/23 10:33:40;;;;;;;5.18;4.72;;;;;;;-2.91;100.00;101631.91;5050302;28;20063;-83
2024/01/23 10:36:10;;;;;;;1.60;1.55;;;;;;;-2.81;100.00;101636.06;5042730;28;20041;-82
2024/01/23 10:38:36;;;;;;;5.93;5.57;;;;;;;-3.43;100.00;101617.78;5041486;28;20644;-81
2024/01/23 10:41:07;;;;;;;0.98;0.98;;;;;;;-2.87;100.00;101641.66;5040741;28;20053;-79
2024/01/23 10:43:34;;;;;;;0.80;0.80;;;;;;;-2.38;100.00;101711.16;5042174;28;20408;-80
2024/01/23 10:46:03;;;;;;;1.40;1.38;;;;;;;-2.71;100.00;101604.25;5038712;28;20194;-82
2024/01/23 10:48:33;;;;;;;0.70;0.70;;;;;;;-2.28;100.00;101687.88;5044363;28;20055;-77
2024/01/23 10:51:04;;;;;;;2.92;2.78;;;;;;;-2.95;100.00;101629.94;5044417;28;20519;-79
2024/01/23 10:53:57;;;;;;;7.50;7.13;;;;;;;-3.12;100.00;101610.69;5046443;28;20052;-78
2024/01/23 10:56:26;;;;;;;1.63;1.55;;;;;;;-2.41;100.00;101713.47;5047226;28;20040;-84
2024/01/23 10:59:02;;;;;;;23.98;21.52;;;;;;;-2.33;100.00;101710.69;5042907;28;20159;-80
2024/01/23 11:01:33;;;;;;;6.38;6.00;;;;;;;-2.87;100.00;101608.25;5049024;28;20048;-79
2024/01/23 11:04:03;;;;;;;1.23;1.23;;;;;;;-2.64;100.00;101596.22;5049473;28;20110;-79
2024/01/23 11:06:36;;;;;;;4.40;4.03;;;;;;;-2.41;100.00;101662.06;5054747;28;20113;-79
2024/01/23 11:09:22;;;;;;;1.50;1.48;;;;;;;-2.84;100.00;101675.25;5054108;28;20041;-78